Time;durP1;ratioP1;P1;durP2;ratioP2;P2;SDS_P1;SDS_P2;PMS_P1;PMS_P2;Temp;Humidity;BMP_temperature;BMP_pressure;BME280_temperature;BME280_humidity;BME280_pressure;Samples;Min_cycle;Max_cycle;Signal;HPM_P1;HPM_P2
2022/11/24 00:13:09;;;;;;;59.60;20.90;;;;;;;0.44;94.49;99853.67;641125;1311;138758;-78
2022/11/24 00:28:13;;;;;;;67.60;22.30;;;;;;;0.29;95.16;99861.70;640735;1312;139182;-75
2022/11/24 00:43:17;;;;;;;72.30;20.80;;;;;;;0.21;95.52;99861.93;641896;1310;138480;-75
2022/11/24 00:58:22;;;;;;;64.00;22.70;;;;;;;0.32;95.57;99845.73;641465;1312;138740;-75
2022/11/24 01:13:25;;;;;;;64.40;19.80;;;;;;;0.46;94.77;99842.06;642542;1307;138524;-75
2022/11/24 01:28:29;;;;;;;78.50;26.00;;;;;;;0.44;93.86;99846.81;641959;1310;138732;-75
2022/11/24 01:43:32;;;;;;;51.80;19.80;;;;;;;0.53;93.47;99848.42;641900;1310;138708;-74
2022/11/24 01:58:37;;;;;;;63.00;18.70;;;;;;;0.44;93.30;99853.17;641565;1307;138440;-75
2022/11/24 02:13:42;;;;;;;59.00;21.20;;;;;;;0.66;93.89;99849.80;641671;1310;138342;-75
2022/11/24 02:28:46;;;;;;;56.10;18.50;;;;;;;0.67;94.10;99852.84;641418;1310;171360;-75
2022/11/24 02:43:58;;;;;;;55.20;21.70;;;;;;;0.63;93.22;99849.91;642407;1309;138450;-76
2022/11/24 02:59:02;;;;;;;71.40;29.00;;;;;;;0.47;93.20;99849.60;641386;1310;139023;-74
2022/11/24 03:14:06;;;;;;;47.00;16.70;;;;;;;0.38;93.01;99853.50;642350;1310;139075;-79
2022/11/24 03:29:09;;;;;;;61.60;25.50;;;;;;;0.47;92.98;99842.39;641906;1310;138870;-78
2022/11/24 03:44:13;;;;;;;52.50;18.70;;;;;;;0.72;94.28;99847.92;642515;1309;138879;-75
2022/11/24 03:59:18;;;;;;;44.50;16.20;;;;;;;0.72;94.09;99858.77;641752;1310;138844;-76
2022/11/24 04:14:21;;;;;;;44.10;16.30;;;;;;;0.63;93.00;99865.11;641322;1306;138754;-75
2022/11/24 04:29:24;;;;;;;51.70;17.70;;;;;;;0.59;92.99;99861.35;643445;1309;138617;-74
2022/11/24 04:44:28;;;;;;;44.40;16.90;;;;;;;0.59;93.27;99865.66;642467;1313;138599;-75
2022/11/24 04:59:31;;;;;;;43.70;15.30;;;;;;;0.70;93.67;99881.27;641646;1310;138447;-74
2022/11/24 05:14:34;;;;;;;51.80;19.90;;;;;;;0.55;93.95;99900.11;642029;1313;138886;-74
2022/11/24 05:29:38;;;;;;;46.70;17.40;;;;;;;0.60;94.34;99913.43;641860;1304;139066;-76
2022/11/24 05:44:41;;;;;;;53.90;21.00;;;;;;;0.52;94.28;99924.20;642063;1307;138371;-76
2022/11/24 05:59:45;;;;;;;98.00;38.20;;;;;;;0.48;94.95;99914.79;641852;1312;138343;-76
2022/11/24 06:14:48;;;;;;;58.40;22.80;;;;;;;0.62;95.04;99929.70;641715;1310;138602;-78
2022/11/24 06:29:52;;;;;;;44.70;18.00;;;;;;;0.55;94.73;99946.95;642039;1310;138893;-75
2022/11/24 06:44:56;;;;;;;77.60;29.50;;;;;;;0.46;95.19;99968.91;641971;1310;138521;-75
2022/11/24 06:59:59;;;;;;;65.70;27.70;;;;;;;0.55;95.76;99963.27;642100;1309;138885;-78
2022/11/24 07:15:03;;;;;;;103.80;43.90;;;;;;;0.64;96.24;99975.36;641927;1310;139090;-79
2022/11/24 07:30:07;;;;;;;588.60;152.40;;;;;;;0.63;96.04;99990.73;642045;1295;139340;-79
2022/11/24 07:45:10;;;;;;;87.10;27.40;;;;;;;0.70;95.36;99998.48;642677;1309;138850;-78
2022/11/24 08:00:14;;;;;;;131.60;40.00;;;;;;;0.75;94.94;99995.43;642720;1304;138882;-76
2022/11/24 08:15:18;;;;;;;83.80;37.10;;;;;;;0.78;95.24;100008.40;648635;1310;139342;-74
2022/11/24 08:30:21;;;;;;;112.80;40.50;;;;;;;0.92;95.34;100004.23;642407;1304;138771;-76
2022/11/24 08:45:25;;;;;;;166.50;52.20;;;;;;;0.92;95.29;100018.54;642538;1294;138872;-75
2022/11/24 09:00:32;;;;;;;340.20;107.60;;;;;;;0.93;94.89;100028.11;642447;1295;138569;-75
2022/11/24 09:15:36;;;;;;;73.20;25.80;;;;;;;1.15;94.60;100025.44;642782;1295;139287;-75
2022/11/24 09:30:39;;;;;;;59.40;20.90;;;;;;;1.28;94.31;100017.83;644359;1310;138399;-75
2022/11/24 09:46:06;;;;;;;57.90;20.90;;;;;;;1.51;94.14;100029.52;650900;1295;139129;-76
2022/11/24 10:01:30;;;;;;;115.60;35.30;;;;;;;1.58;93.60;100023.47;651751;1310;138759;-73
2022/11/24 10:16:43;;;;;;;80.90;34.60;;;;;;;1.64;93.88;100021.10;650501;1302;138864;-75
2022/11/24 10:31:53;;;;;;;85.30;26.70;;;;;;;1.80;93.53;100033.48;643109;1294;138461;-76
2022/11/24 10:46:57;;;;;;;146.80;51.80;;;;;;;1.84;92.86;100022.73;642474;1310;138505;-76
2022/11/24 11:02:02;;;;;;;60.10;21.70;;;;;;;1.77;92.66;100026.73;641746;1310;138763;-76
2022/11/24 11:17:35;;;;;;;49.50;19.50;;;;;;;1.89;92.63;100039.36;642679;1299;138417;-75
2022/11/24 11:32:52;;;;;;;68.80;25.10;;;;;;;1.83;92.64;100044.36;643450;1310;139333;-76
2022/11/24 11:48:23;;;;;;;196.60;70.60;;;;;;;1.85;92.74;100050.78;643954;1310;138552;-76
2022/11/24 12:03:30;;;;;;;135.30;44.90;;;;;;;2.01;92.97;100047.29;644815;1310;139059;-76
2022/11/24 12:18:41;;;;;;;99.30;38.20;;;;;;;2.14;91.35;100049.73;643613;1308;138532;-76
2022/11/24 12:34:31;;;;;;;121.40;42.10;;;;;;;2.15;91.98;100053.81;646648;1294;139549;-77
2022/11/24 12:50:17;;;;;;;98.00;36.50;;;;;;;2.05;91.24;100054.86;648467;1310;138943;-77
2022/11/24 13:05:31;;;;;;;109.30;42.30;;;;;;;2.07;91.03;100049.05;646008;1309;139419;-79
2022/11/24 13:20:39;;;;;;;96.90;37.20;;;;;;;2.19;91.68;100036.61;642987;1308;138986;-78
2022/11/24 13:36:01;;;;;;;417.80;131.20;;;;;;;2.31;90.51;100045.77;643829;1310;138769;-78
2022/11/24 13:51:05;;;;;;;353.40;123.00;;;;;;;2.31;91.02;100050.10;650679;1310;139038;-77
2022/11/24 14:06:31;;;;;;;84.70;34.90;;;;;;;2.26;90.33;100056.98;645059;1310;139515;-77
2022/11/24 14:21:41;;;;;;;226.20;70.60;;;;;;;2.23;90.32;100065.73;642980;1309;138422;-78
2022/11/24 14:36:48;;;;;;;203.00;71.20;;;;;;;2.18;90.13;100075.03;641769;1296;156484;-79
2022/11/24 14:51:59;;;;;;;129.30;50.50;;;;;;;2.12;90.50;100090.68;641500;1310;140476;-82
2022/11/24 15:07:22;;;;;;;124.10;43.70;;;;;;;2.23;90.36;100114.77;641753;1309;138642;-80
2022/11/24 15:22:33;;;;;;;176.60;65.40;;;;;;;2.28;90.90;100124.64;641702;1310;138609;-77
2022/11/24 15:37:36;;;;;;;164.00;55.00;;;;;;;2.24;91.20;100134.02;641529;1305;138934;-79
2022/11/24 15:52:41;;;;;;;188.60;62.30;;;;;;;2.29;91.03;100136.20;641413;1310;139262;-78
2022/11/24 16:07:45;;;;;;;98.40;36.80;;;;;;;2.20;90.76;100128.06;641586;1310;139104;-82
2022/11/24 16:22:49;;;;;;;195.10;70.50;;;;;;;2.18;91.22;100139.71;641933;1310;138816;-78
2022/11/24 16:37:52;;;;;;;106.90;39.50;;;;;;;2.09;91.47;100137.10;641823;1310;139287;-77
2022/11/24 16:52:56;;;;;;;188.30;64.40;;;;;;;2.15;91.08;100155.08;661622;1308;138589;-76
2022/11/24 17:08:00;;;;;;;279.70;120.60;;;;;;;2.10;90.78;100168.12;661004;1308;138629;-76
2022/11/24 17:23:05;;;;;;;200.70;77.80;;;;;;;2.01;90.92;100175.85;661373;1310;138932;-77
2022/11/24 17:38:09;;;;;;;90.10;36.40;;;;;;;2.19;90.62;100192.48;661136;1307;138397;-77
2022/11/24 17:53:13;;;;;;;128.00;45.90;;;;;;;2.25;90.10;100202.64;661511;1310;138423;-76
2022/11/24 18:08:17;;;;;;;121.60;39.30;;;;;;;2.28;90.24;100209.94;661586;1304;138717;-76
2022/11/24 18:23:21;;;;;;;124.80;48.10;;;;;;;2.29;90.69;100217.45;661559;1310;139756;-76
2022/11/24 18:38:26;;;;;;;155.80;60.00;;;;;;;2.30;91.17;100222.08;661110;1308;138839;-76
2022/11/24 18:53:30;;;;;;;208.30;82.10;;;;;;;2.37;90.80;100223.43;660731;1310;138777;-78
2022/11/24 19:08:33;;;;;;;115.30;41.20;;;;;;;2.24;91.51;100237.59;660926;1310;138881;-77
2022/11/24 19:23:37;;;;;;;243.50;83.80;;;;;;;2.10;92.07;100255.40;660984;1310;139131;-78
2022/11/24 19:38:42;;;;;;;187.60;69.70;;;;;;;2.16;92.38;100260.98;661098;1305;139367;-77
2022/11/24 19:53:46;;;;;;;151.00;49.90;;;;;;;2.22;92.62;100260.63;661320;1310;138993;-76
2022/11/24 20:08:50;;;;;;;134.20;49.50;;;;;;;2.28;91.95;100260.17;661458;1302;139197;-76
2022/11/24 20:24:06;;;;;;;184.70;64.50;;;;;;;2.28;92.05;100259.45;661283;1309;139380;-76
2022/11/24 20:39:16;;;;;;;142.60;46.80;;;;;;;2.21;92.24;100269.16;661233;1296;138808;-76
2022/11/24 20:54:20;;;;;;;168.90;53.30;;;;;;;2.19;92.62;100295.33;661171;1310;138743;-75
2022/11/24 21:09:56;;;;;;;145.20;46.00;;;;;;;2.26;92.62;100309.63;661150;1311;138776;-77
2022/11/24 21:25:01;;;;;;;113.50;36.90;;;;;;;2.32;92.77;100308.98;660906;1304;138836;-77
2022/11/24 21:40:05;;;;;;;99.40;35.80;;;;;;;2.35;91.97;100321.42;660822;1302;138817;-76
2022/11/24 21:55:08;;;;;;;109.10;36.40;;;;;;;2.29;91.54;100343.98;660696;1310;138635;-76
2022/11/24 22:10:12;;;;;;;85.20;28.70;;;;;;;2.31;91.77;100344.56;661060;1304;138619;-76
2022/11/24 22:25:15;;;;;;;108.60;38.70;;;;;;;2.34;91.59;100331.63;660889;1296;138663;-76
2022/11/24 22:40:19;;;;;;;113.70;43.30;;;;;;;2.17;92.04;100337.18;661150;1303;138632;-76
2022/11/24 22:55:24;;;;;;;85.20;28.20;;;;;;;2.17;92.33;100340.80;660904;1309;138767;-76
2022/11/24 23:10:28;;;;;;;119.00;36.20;;;;;;;2.34;92.17;100349.77;660816;1294;138582;-77
2022/11/24 23:25:32;;;;;;;102.80;33.20;;;;;;;2.29;92.23;100344.30;660588;1290;139073;-76
2022/11/24 23:40:35;;;;;;;79.90;28.50;;;;;;;2.32;92.35;100335.58;661275;1310;139890;-77
2022/11/24 23:55:39;;;;;;;85.20;27.40;;;;;;;2.36;91.79;100329.80;661360;1310;138482;-76
